Time;durP1;ratioP1;P1;durP2;ratioP2;P2;SDS_P1;SDS_P2;PMS_P1;PMS_P2;Temp;Humidity;BMP_temperature;BMP_pressure;BME280_temperature;BME280_humidity;BME280_pressure;Samples;Min_cycle;Max_cycle;Signal;HPM_P1;HPM_P2
2023/01/24 00:00:53;;;;;;;30.63;13.48;;;;;;;1.25;100.00;103448.50;4952770;28;20031;-70
2023/01/24 00:03:18;;;;;;;25.70;12.07;;;;;;;1.27;100.00;103449.34;4931614;28;20034;-70
2023/01/24 00:05:46;;;;;;;28.92;12.55;;;;;;;1.25;100.00;103443.25;4951440;28;20105;-70
2023/01/24 00:08:13;;;;;;;28.13;12.48;;;;;;;1.16;100.00;103432.91;4950223;28;20071;-70
2023/01/24 00:10:39;;;;;;;26.27;13.07;;;;;;;1.11;100.00;103428.69;4952437;28;20018;-71
2023/01/24 00:13:05;;;;;;;25.17;11.13;;;;;;;1.14;100.00;103429.47;4952350;28;20055;-70
2023/01/24 00:15:31;;;;;;;29.70;13.70;;;;;;;1.24;100.00;103420.47;4949726;28;20075;-70
2023/01/24 00:17:57;;;;;;;;;;;;;;;1.19;100.00;103405.66;4954270;28;20123;-70
2023/01/24 00:20:22;;;;;;;24.17;11.90;;;;;;;1.20;100.00;103389.84;4932062;28;20342;-70
2023/01/24 00:22:47;;;;;;;25.80;13.27;;;;;;;1.21;100.00;103374.91;4953433;28;20034;-70
2023/01/24 00:25:13;;;;;;;29.83;10.83;;;;;;;1.28;100.00;103363.34;4955009;28;20374;-71
2023/01/24 00:27:38;;;;;;;25.90;11.43;;;;;;;1.29;100.00;103353.66;4952640;28;20563;-70
2023/01/24 00:30:05;;;;;;;25.30;11.87;;;;;;;1.27;100.00;103325.63;4946961;28;20050;-70
2023/01/24 00:32:31;;;;;;;26.98;11.32;;;;;;;1.20;100.00;103320.56;4935026;28;20828;-70
2023/01/24 00:34:57;;;;;;;29.50;11.88;;;;;;;1.20;100.00;103339.84;4959926;28;20042;-70
2023/01/24 00:37:23;;;;;;;;;;;;;;;1.19;100.00;103351.25;4948862;28;20047;-70
2023/01/24 00:39:48;;;;;;;27.05;12.02;;;;;;;1.23;100.00;103363.44;4952494;28;19918;-70
2023/01/24 00:42:13;;;;;;;24.40;10.53;;;;;;;1.22;100.00;103361.72;4950884;28;20489;-71
2023/01/24 00:44:39;;;;;;;24.08;11.07;;;;;;;1.21;100.00;103373.16;4952338;28;20404;-70
2023/01/24 00:47:04;;;;;;;24.07;10.80;;;;;;;1.19;100.00;103380.22;4951151;28;20050;-70
2023/01/24 00:49:29;;;;;;;26.70;12.87;;;;;;;1.18;100.00;103375.84;4946063;28;20293;-70
2023/01/24 00:51:55;;;;;;;25.20;12.48;;;;;;;1.18;100.00;103382.91;4945499;28;20068;-70
2023/01/24 00:54:20;;;;;;;29.90;13.50;;;;;;;1.20;100.00;103392.47;4948838;28;20113;-70
2023/01/24 00:56:47;;;;;;;27.30;12.50;;;;;;;1.16;100.00;103379.44;4952915;28;20289;-71
2023/01/24 00:59:12;;;;;;;29.77;12.68;;;;;;;1.17;100.00;103373.25;4945512;28;20034;-70
2023/01/24 01:01:38;;;;;;;24.23;11.15;;;;;;;1.19;100.00;103374.09;4945594;28;20062;-70
2023/01/24 01:04:03;;;;;;;23.67;11.55;;;;;;;1.23;100.00;103381.88;4944224;28;20070;-70
2023/01/24 01:06:29;;;;;;;25.20;12.07;;;;;;;1.37;100.00;103393.84;4957175;28;20046;-71
2023/01/24 01:08:54;;;;;;;26.17;12.15;;;;;;;1.34;100.00;103372.88;4954388;28;20511;-70
2023/01/24 01:11:21;;;;;;;20.40;10.85;;;;;;;1.30;100.00;103360.69;4948083;28;20034;-70
2023/01/24 01:13:48;;;;;;;23.10;10.85;;;;;;;1.24;100.00;103357.31;4952681;28;20043;-70
2023/01/24 01:16:17;;;;;;;24.65;11.30;;;;;;;1.16;100.00;103348.72;4951641;28;20031;-70
2023/01/24 01:18:43;;;;;;;24.20;10.63;;;;;;;1.16;100.00;103330.28;4964098;28;20027;-70
2023/01/24 01:21:12;;;;;;;27.33;12.23;;;;;;;1.18;100.00;103312.69;4954701;28;20590;-70
2023/01/24 01:23:37;;;;;;;22.38;11.80;;;;;;;1.23;100.00;103313.44;4947436;28;20031;-70
2023/01/24 01:26:06;;;;;;;23.92;11.30;;;;;;;1.21;100.00;103307.34;4949685;28;20027;-71
2023/01/24 01:28:32;;;;;;;26.05;11.35;;;;;;;1.19;100.00;103308.28;4953213;28;20272;-70
2023/01/24 01:30:57;;;;;;;26.45;11.82;;;;;;;1.17;100.00;103312.72;4949336;28;20496;-70
2023/01/24 01:33:24;;;;;;;25.42;11.30;;;;;;;1.20;100.00;103317.94;4952545;28;20037;-70
2023/01/24 01:35:50;;;;;;;23.15;10.45;;;;;;;1.23;100.00;103321.34;4954076;28;20027;-70
2023/01/24 01:38:16;;;;;;;;;;;;;;;1.25;100.00;103324.81;4950048;29;20065;-70
2023/01/24 01:40:42;;;;;;;22.65;11.88;;;;;;;1.25;100.00;103340.59;4946763;28;19918;-70
2023/01/24 01:43:20;;;;;;;22.90;11.45;;;;;;;1.21;100.00;103331.03;4954474;28;20031;-71
2023/01/24 01:45:48;;;;;;;22.95;11.60;;;;;;;1.20;100.00;103334.59;4943229;28;20515;-70
2023/01/24 01:48:34;;;;;;;23.35;11.25;;;;;;;1.23;100.00;103321.34;4950835;28;20028;-70
2023/01/24 01:51:10;;;;;;;25.38;12.15;;;;;;;1.24;100.00;103325.72;4959727;28;20031;-70
2023/01/24 01:53:40;;;;;;;;;;;;;;;1.23;100.00;103326.59;4946842;28;20027;-70
2023/01/24 01:56:13;;;;;;;28.70;11.20;;;;;;;1.17;100.00;103329.41;4954761;28;19914;-70
2023/01/24 01:58:40;;;;;;;23.33;11.32;;;;;;;1.12;100.00;103323.38;4954341;28;20031;-70
2023/01/24 02:01:06;;;;;;;22.70;10.13;;;;;;;1.11;100.00;103337.44;4948736;28;20022;-70
2023/01/24 02:03:48;;;;;;;29.38;11.38;;;;;;;1.10;100.00;103356.78;4951031;28;20041;-70
2023/01/24 02:06:29;;;;;;;22.20;10.40;;;;;;;1.10;100.00;103359.41;4948287;28;20058;-70
2023/01/24 02:08:56;;;;;;;24.92;11.43;;;;;;;1.06;100.00;103355.13;4964835;28;20037;-70
2023/01/24 02:11:40;;;;;;;25.10;11.30;;;;;;;1.07;100.00;103354.19;4949360;28;20031;-70
2023/01/24 02:16:54;;;;;;;22.38;10.75;;;;;;;1.14;100.00;103361.03;4948531;28;20034;-70
2023/01/24 02:19:27;;;;;;;24.08;11.50;;;;;;;1.05;100.00;103342.84;4954129;28;20401;-70
2023/01/24 02:21:58;;;;;;;22.42;10.43;;;;;;;1.04;100.00;103323.56;4945490;28;20536;-70
2023/01/24 02:24:36;;;;;;;19.83;9.13;;;;;;;1.15;100.00;103304.91;4934691;28;20027;-70
2023/01/24 02:27:01;;;;;;;16.42;7.85;;;;;;;1.11;100.00;103253.25;4943471;28;20028;-70
2023/01/24 02:29:27;;;;;;;19.90;10.40;;;;;;;1.15;100.00;103215.44;4954612;28;20023;-70
2023/01/24 02:32:01;;;;;;;18.40;9.25;;;;;;;1.21;100.00;103199.44;4948266;28;20666;-70
2023/01/24 02:34:28;;;;;;;18.35;8.95;;;;;;;1.22;100.00;103190.66;4946930;28;20085;-70
2023/01/24 02:36:57;;;;;;;22.17;9.88;;;;;;;1.26;100.00;103207.22;4948306;28;20516;-70
2023/01/24 02:39:29;;;;;;;22.02;10.73;;;;;;;1.32;100.00;103217.59;4948183;28;20027;-70
2023/01/24 02:41:59;;;;;;;16.92;8.35;;;;;;;1.27;100.00;103204.56;4961118;28;20058;-70
2023/01/24 02:44:36;;;;;;;25.23;10.02;;;;;;;1.34;100.00;103210.53;4952140;28;20388;-70
2023/01/24 02:47:03;;;;;;;15.75;8.77;;;;;;;1.34;100.00;103191.25;4956598;28;20066;-70
2023/01/24 02:49:28;;;;;;;19.25;8.90;;;;;;;1.23;100.00;103166.06;4948779;28;20054;-71
2023/01/24 02:54:38;;;;;;;24.23;9.45;;;;;;;1.06;100.00;103115.69;4954398;28;20038;-70
2023/01/24 02:59:47;;;;;;;14.48;7.70;;;;;;;1.02;100.00;102985.13;4952583;28;20084;-73
2023/01/24 03:02:13;;;;;;;13.95;7.18;;;;;;;1.03;100.00;102906.19;4932487;29;20055;-73
2023/01/24 03:04:38;;;;;;;16.45;7.63;;;;;;;1.04;100.00;102849.16;4959733;28;20035;-72
2023/01/24 03:07:06;;;;;;;14.65;7.03;;;;;;;1.08;100.00;102795.53;4946937;28;20041;-72
2023/01/24 03:09:34;;;;;;;17.73;6.78;;;;;;;1.16;100.00;102759.28;4955629;28;20121;-73
2023/01/24 03:36:45;;;;;;;17.52;8.48;;;;;;;1.25;100.00;102743.19;4962058;28;20039;-70
2023/01/24 03:41:54;;;;;;;19.08;8.55;;;;;;;1.16;100.00;102845.28;4946948;28;20050;-73
2023/01/24 03:44:19;;;;;;;17.40;8.43;;;;;;;1.10;100.00;102883.19;4947938;28;20023;-73
2023/01/24 03:46:45;;;;;;;12.23;7.55;;;;;;;1.13;100.00;102935.69;4950972;28;20076;-73
2023/01/24 03:49:12;;;;;;;15.45;7.90;;;;;;;1.06;100.00;102952.56;4948965;28;20054;-73
2023/01/24 03:54:22;;;;;;;14.32;7.63;;;;;;;1.14;100.00;103008.44;4947459;28;20035;-72
2023/01/24 03:56:54;;;;;;;17.42;8.32;;;;;;;1.18;100.00;103035.53;4947136;28;20027;-73
2023/01/24 03:59:21;;;;;;;17.13;9.07;;;;;;;1.17;100.00;103053.09;4949032;28;20041;-70
2023/01/24 04:01:46;;;;;;;21.00;9.40;;;;;;;1.16;100.00;103089.97;4962966;28;20043;-70
2023/01/24 04:04:19;;;;;;;18.83;9.65;;;;;;;1.08;100.00;103091.94;4949609;28;20763;-70
2023/01/24 04:06:45;;;;;;;15.45;8.55;;;;;;;1.10;100.00;103117.34;4954311;28;20034;-70
2023/01/24 04:09:12;;;;;;;18.33;9.70;;;;;;;1.11;100.00;103142.72;4931165;29;20485;-70
2023/01/24 04:11:39;;;;;;;16.73;10.05;;;;;;;1.11;100.00;103169.03;4946834;28;20027;-70
2023/01/24 04:14:21;;;;;;;20.40;10.20;;;;;;;1.10;100.00;103196.28;4948114;28;20055;-70
2023/01/24 04:16:55;;;;;;;21.25;9.10;;;;;;;1.08;100.00;103215.59;4951183;28;20438;-70
2023/01/24 04:19:26;;;;;;;18.98;9.77;;;;;;;1.07;100.00;103227.91;4946895;28;20054;-70
2023/01/24 04:21:51;;;;;;;20.70;9.07;;;;;;;1.05;100.00;103243.75;4942148;28;20073;-70
2023/01/24 04:24:17;;;;;;;20.13;9.93;;;;;;;1.03;100.00;103256.09;4931319;28;20083;-70
2023/01/24 04:26:43;;;;;;;22.25;10.38;;;;;;;1.02;100.00;103256.97;4952066;28;20397;-70
2023/01/24 04:29:14;;;;;;;18.40;9.80;;;;;;;1.03;100.00;103257.81;4946951;29;20536;-70
2023/01/24 04:31:41;;;;;;;19.70;9.93;;;;;;;1.04;100.00;103264.81;4942181;28;20122;-70
2023/01/24 04:34:19;;;;;;;21.75;9.85;;;;;;;1.01;100.00;103259.66;4964746;28;20054;-70
2023/01/24 04:36:44;;;;;;;20.02;8.88;;;;;;;0.99;100.00;103262.31;4953680;28;20384;-70
2023/01/24 04:39:10;;;;;;;19.35;8.95;;;;;;;0.99;100.00;103270.22;4945936;28;20372;-70
2023/01/24 04:41:45;;;;;;;21.58;10.23;;;;;;;0.99;100.00;103286.00;4944710;28;20043;-70
2023/01/24 04:44:11;;;;;;;24.77;9.82;;;;;;;0.98;100.00;103286.03;4954109;28;20378;-70
2023/01/24 04:46:37;;;;;;;17.25;8.48;;;;;;;0.98;100.00;103280.75;4952662;28;20030;-70
2023/01/24 04:49:02;;;;;;;18.45;9.10;;;;;;;1.03;100.00;103286.75;4962910;28;20035;-70
2023/01/24 04:51:35;;;;;;;21.60;10.57;;;;;;;1.02;100.00;103287.69;4950976;28;20023;-70
2023/01/24 04:54:04;;;;;;;16.80;9.02;;;;;;;1.01;100.00;103294.72;4944531;28;20104;-70
2023/01/24 04:56:29;;;;;;;15.77;9.15;;;;;;;1.04;100.00;103296.41;4945963;28;20035;-70
2023/01/24 04:58:57;;;;;;;19.95;10.05;;;;;;;1.02;100.00;103285.03;4934655;29;20086;-70
2023/01/24 05:01:22;;;;;;;21.23;9.35;;;;;;;0.99;100.00;103288.63;4945917;28;20863;-70
2023/01/24 05:04:01;;;;;;;20.98;8.93;;;;;;;0.96;100.00;103287.81;4946441;28;20039;-70
2023/01/24 05:06:31;;;;;;;17.60;9.10;;;;;;;0.96;100.00;103300.97;4950344;28;20038;-70
2023/01/24 05:08:57;;;;;;;19.25;9.25;;;;;;;0.93;100.00;103309.81;4942671;28;20035;-70
2023/01/24 05:11:27;;;;;;;19.65;9.07;;;;;;;0.91;100.00;103298.44;4944438;28;20023;-70
2023/01/24 05:13:57;;;;;;;20.48;10.23;;;;;;;0.88;100.00;103297.69;4962192;28;20046;-70
2023/01/24 05:16:22;;;;;;;21.40;12.20;;;;;;;0.80;100.00;103253.16;4950475;28;20027;-70
2023/01/24 05:18:47;;;;;;;19.55;9.52;;;;;;;0.83;100.00;103240.78;4949194;28;20159;-70
2023/01/24 05:21:15;;;;;;;19.75;9.27;;;;;;;0.87;100.00;103251.22;4949183;28;20112;-70
2023/01/24 05:23:42;;;;;;;19.65;10.07;;;;;;;0.84;100.00;103258.31;4961991;28;20019;-70
2023/01/24 05:26:08;;;;;;;20.48;10.20;;;;;;;0.90;100.00;103267.81;4946456;28;20521;-70
2023/01/24 05:28:34;;;;;;;;;;;;;;;0.94;100.00;103297.53;4951558;28;20114;-70
2023/01/24 05:31:01;;;;;;;18.88;10.02;;;;;;;0.90;100.00;103290.63;4946000;29;19970;-70
2023/01/24 05:33:29;;;;;;;18.23;10.05;;;;;;;0.87;100.00;103295.94;4945962;28;20035;-70
2023/01/24 05:36:00;;;;;;;19.70;9.15;;;;;;;0.76;100.00;103273.41;4948549;28;20034;-70
2023/01/24 05:38:29;;;;;;;19.08;8.63;;;;;;;0.79;100.00;103241.75;4960491;28;20035;-70
2023/01/24 05:41:06;;;;;;;22.98;8.95;;;;;;;0.82;100.00;103170.69;4945711;28;20038;-70
2023/01/24 05:43:33;;;;;;;17.38;8.07;;;;;;;0.88;100.00;103088.13;4943537;28;20664;-70
2023/01/24 05:46:01;;;;;;;15.95;8.15;;;;;;;0.96;100.00;103041.44;4944020;29;20035;-70
2023/01/24 05:48:27;;;;;;;21.02;9.93;;;;;;;0.99;100.00;103019.44;4945287;28;20070;-70
2023/01/24 05:50:58;;;;;;;15.77;8.30;;;;;;;0.98;100.00;103008.06;4950015;28;20089;-70
2023/01/24 05:53:24;;;;;;;17.38;8.90;;;;;;;0.99;100.00;103015.03;4946306;28;20049;-70
2023/01/24 05:55:56;;;;;;;;;;;;;;;0.97;100.00;103026.50;4936908;29;20067;-70
2023/01/24 05:58:22;;;;;;;17.88;9.02;;;;;;;0.99;100.00;103061.53;4957159;28;19914;-70
2023/01/24 06:01:07;;;;;;;18.90;10.18;;;;;;;0.98;100.00;103100.13;4926516;28;20413;-70
2023/01/24 06:03:43;;;;;;;19.83;9.18;;;;;;;0.98;100.00;103133.44;4957283;28;20031;-70
2023/01/24 06:06:11;;;;;;;20.58;8.82;;;;;;;0.99;100.00;103158.84;4947025;28;20030;-73
2023/01/24 06:08:37;;;;;;;18.92;8.85;;;;;;;0.99;100.00;103172.88;4950891;28;20485;-73
2023/01/24 06:11:04;;;;;;;19.77;9.73;;;;;;;1.02;100.00;103185.06;4945009;28;20042;-73
2023/01/24 06:13:31;;;;;;;17.63;9.43;;;;;;;1.03;100.00;103187.69;4953628;28;20053;-73
2023/01/24 06:16:26;;;;;;;21.15;11.23;;;;;;;1.03;100.00;103161.38;4948916;29;20489;-73
2023/01/24 06:18:53;;;;;;;22.88;10.05;;;;;;;1.05;100.00;103153.41;4893453;29;20048;-73
2023/01/24 06:21:37;;;;;;;17.38;9.73;;;;;;;1.08;100.00;103149.84;4891333;29;20031;-73
2023/01/24 06:24:04;;;;;;;18.60;9.60;;;;;;;1.06;100.00;103120.97;4902025;29;20055;-73
2023/01/24 06:26:43;;;;;;;18.63;9.40;;;;;;;0.98;100.00;103081.72;4889606;29;20041;-72
2023/01/24 06:29:10;;;;;;;18.25;9.95;;;;;;;0.95;100.00;103080.94;4907824;29;20055;-73
2023/01/24 06:31:54;;;;;;;20.70;9.40;;;;;;;0.85;100.00;103080.31;4908841;29;20035;-70
2023/01/24 06:34:53;;;;;;;16.70;9.98;;;;;;;0.85;100.00;103064.53;4892460;29;20430;-73
2023/01/24 06:37:30;;;;;;;19.90;10.43;;;;;;;0.92;100.00;103023.16;4903989;29;20569;-73
2023/01/24 06:39:56;;;;;;;18.08;9.30;;;;;;;0.96;100.00;102978.31;4906914;29;20182;-73
2023/01/24 06:42:22;;;;;;;16.83;9.40;;;;;;;1.02;100.00;102993.03;4892910;29;20121;-69
2023/01/24 06:44:48;;;;;;;18.95;9.80;;;;;;;0.99;100.00;103007.13;4893393;29;20044;-71
2023/01/24 06:47:14;;;;;;;18.75;9.57;;;;;;;0.88;100.00;102998.69;4909255;29;20028;-74
2023/01/24 06:49:40;;;;;;;22.88;11.30;;;;;;;0.71;100.00;102940.50;4892960;29;20055;-69
2023/01/24 06:52:06;;;;;;;21.67;10.40;;;;;;;0.74;100.00;102938.63;4908979;29;20038;-69
2023/01/24 06:54:35;;;;;;;18.33;10.15;;;;;;;0.76;100.00;102928.91;4916703;29;20137;-70
2023/01/24 06:57:02;;;;;;;19.20;10.20;;;;;;;0.75;100.00;102892.13;4949773;28;20046;-70
2023/01/24 06:59:27;;;;;;;18.08;9.70;;;;;;;0.81;100.00;102898.06;4949800;28;20025;-69
2023/01/24 07:01:52;;;;;;;18.20;9.63;;;;;;;0.89;100.00;102928.53;4949444;28;20031;-72
2023/01/24 07:04:18;;;;;;;20.05;10.65;;;;;;;0.91;100.00;102964.41;4951736;28;20164;-74
2023/01/24 07:06:44;;;;;;;18.92;9.98;;;;;;;0.93;100.00;103009.94;4949488;28;20027;-75
2023/01/24 07:09:09;;;;;;;20.77;9.38;;;;;;;0.89;100.00;102989.03;4948484;28;20488;-73
2023/01/24 07:11:35;;;;;;;17.83;9.48;;;;;;;0.93;100.00;102967.00;4952827;28;20385;-71
2023/01/24 07:14:01;;;;;;;16.92;9.00;;;;;;;0.94;100.00;102942.44;4948215;28;20024;-70
2023/01/24 07:16:26;;;;;;;18.95;10.48;;;;;;;0.96;100.00;102946.75;4948762;28;20381;-70
2023/01/24 07:18:52;;;;;;;17.95;10.07;;;;;;;0.92;100.00;102900.38;4956394;28;20035;-70
2023/01/24 07:21:18;;;;;;;20.30;8.63;;;;;;;0.97;100.00;102877.44;4954662;28;20678;-71
2023/01/24 07:23:44;;;;;;;17.35;8.35;;;;;;;0.97;100.00;102822.19;4945905;28;20114;-75
2023/01/24 07:26:11;;;;;;;15.32;9.10;;;;;;;1.10;100.00;102808.63;4951074;28;20039;-70
2023/01/24 07:28:37;;;;;;;16.00;8.13;;;;;;;1.09;100.00;102801.66;4951805;28;20395;-70
2023/01/24 07:31:03;;;;;;;17.33;9.75;;;;;;;0.92;100.00;102755.72;4931178;29;20552;-76
2023/01/24 07:33:29;;;;;;;;;;;;;;;0.92;100.00;102773.28;4950678;28;20031;-73
2023/01/24 07:35:54;;;;;;;16.10;9.32;;;;;;;0.94;100.00;102776.72;4953144;28;19916;-70
2023/01/24 07:38:19;;;;;;;18.55;9.52;;;;;;;0.92;100.00;102773.28;4948110;28;20129;-74
2023/01/24 07:40:45;;;;;;;23.33;10.37;;;;;;;0.98;100.00;102802.88;4952275;28;20129;-70
2023/01/24 07:43:10;;;;;;;22.00;11.38;;;;;;;1.03;100.00;102853.56;4947381;28;20298;-71
2023/01/24 07:45:37;;;;;;;22.88;12.00;;;;;;;1.06;100.00;102921.00;4950424;28;20054;-74
2023/01/24 07:48:05;;;;;;;22.40;10.68;;;;;;;1.06;100.00;102971.00;4947553;28;20576;-75
2023/01/24 07:50:31;;;;;;;22.15;10.55;;;;;;;1.10;100.00;103020.00;4952522;28;20031;-75
2023/01/24 07:52:57;;;;;;;27.55;11.10;;;;;;;1.11;100.00;103032.22;4947394;28;20472;-70
2023/01/24 07:55:22;;;;;;;17.35;9.90;;;;;;;1.10;100.00;103041.03;4963011;28;20031;-71
2023/01/24 07:57:48;;;;;;;20.27;10.85;;;;;;;1.11;100.00;103039.25;4948139;28;20047;-76
2023/01/24 08:00:14;;;;;;;23.88;11.18;;;;;;;1.08;100.00;103024.44;4949901;28;20115;-74
2023/01/24 08:02:41;;;;;;;21.90;10.57;;;;;;;1.09;100.00;102981.41;4949440;28;20034;-72
2023/01/24 08:05:07;;;;;;;21.67;10.30;;;;;;;1.09;100.00;102930.56;4946754;29;20039;-70
2023/01/24 08:07:32;;;;;;;21.30;9.52;;;;;;;1.07;100.00;102888.50;4955086;28;20110;-72
2023/01/24 08:09:57;;;;;;;18.27;10.93;;;;;;;0.99;100.00;102830.91;4955393;28;20043;-74
2023/01/24 08:12:23;;;;;;;21.93;10.60;;;;;;;0.84;100.00;102799.81;4946741;28;20033;-77
2023/01/24 08:14:48;;;;;;;18.95;9.90;;;;;;;0.82;100.00;102815.66;4947381;28;20318;-74
2023/01/24 08:17:14;;;;;;;17.42;9.90;;;;;;;0.82;100.00;102847.22;4945809;28;20308;-70
2023/01/24 08:19:39;;;;;;;16.20;9.67;;;;;;;0.76;100.00;102851.81;4947024;28;20035;-71
2023/01/24 08:22:06;;;;;;;23.88;10.77;;;;;;;0.76;100.00;102860.53;4946063;28;20050;-73
2023/01/24 08:24:31;;;;;;;21.45;9.73;;;;;;;0.80;100.00;102872.69;4946245;28;20473;-72
2023/01/24 08:26:58;;;;;;;21.33;11.02;;;;;;;0.78;100.00;102877.13;4946326;28;20126;-73
2023/01/24 08:29:24;;;;;;;20.35;11.38;;;;;;;0.77;100.00;102888.59;4951468;28;20401;-71
2023/01/24 08:31:49;;;;;;;18.15;9.32;;;;;;;0.74;100.00;102851.84;4945650;28;20027;-71
2023/01/24 08:34:14;;;;;;;21.98;10.23;;;;;;;0.83;100.00;102875.22;4947824;29;20041;-70
2023/01/24 08:36:40;;;;;;;20.35;10.77;;;;;;;0.76;100.00;102834.25;4951118;28;20031;-70
2023/01/24 08:39:05;;;;;;;18.97;9.97;;;;;;;0.92;100.00;102852.19;4955158;28;20027;-71
2023/01/24 08:41:31;;;;;;;18.23;9.88;;;;;;;0.97;100.00;102859.00;4952970;28;20782;-76
2023/01/24 08:43:56;;;;;;;21.50;9.70;;;;;;;0.93;100.00;102835.50;4946396;28;20043;-70
2023/01/24 08:46:22;;;;;;;21.83;10.73;;;;;;;0.87;100.00;102799.75;4951243;28;20028;-71
2023/01/24 08:48:47;;;;;;;19.50;10.57;;;;;;;0.89;100.00;102812.81;4949695;28;20563;-72
2023/01/24 08:51:12;;;;;;;17.53;9.33;;;;;;;0.86;100.00;102812.94;4950981;28;20039;-74
2023/01/24 08:53:38;;;;;;;17.00;9.67;;;;;;;0.82;100.00;102813.03;4949342;28;20320;-75
2023/01/24 08:56:04;;;;;;;20.17;10.32;;;;;;;0.81;100.00;102821.81;4947109;28;20336;-75
2023/01/24 08:58:32;;;;;;;24.40;11.52;;;;;;;0.86;100.00;102862.91;4945878;28;20116;-72
2023/01/24 09:00:57;;;;;;;15.25;8.57;;;;;;;0.89;100.00;102870.69;4946995;28;20047;-70
2023/01/24 09:03:22;;;;;;;16.85;9.77;;;;;;;0.93;100.00;102862.66;4946176;28;20059;-71
2023/01/24 09:05:47;;;;;;;20.73;10.15;;;;;;;0.89;100.00;102847.00;4946885;29;20050;-75
2023/01/24 09:08:14;;;;;;;18.38;9.15;;;;;;;0.80;100.00;102832.41;4947353;28;20162;-76
2023/01/24 09:10:39;;;;;;;23.88;11.02;;;;;;;0.86;100.00;102862.91;4945923;28;20043;-69
2023/01/24 09:13:05;;;;;;;19.45;9.80;;;;;;;0.98;100.00;102886.16;4946770;28;20020;-70
2023/01/24 09:15:31;;;;;;;21.92;11.70;;;;;;;0.96;100.00;102886.25;4947028;29;20031;-72
2023/01/24 09:17:59;;;;;;;;;;;;;;;0.90;100.00;102862.75;4946264;29;20035;-73
2023/01/24 09:20:25;;;;;;;22.00;10.40;;;;;;;0.91;100.00;102842.56;4946975;28;19918;-71
2023/01/24 09:22:50;;;;;;;18.65;8.95;;;;;;;0.84;100.00;102813.84;4946694;28;20035;-73
2023/01/24 09:25:16;;;;;;;15.93;9.50;;;;;;;0.82;100.00;102776.22;4943602;28;20248;-69
2023/01/24 09:27:41;;;;;;;16.63;8.85;;;;;;;0.91;100.00;102767.13;4946762;29;20035;-70
2023/01/24 09:30:08;;;;;;;20.27;9.65;;;;;;;1.01;100.00;102805.41;4946085;28;20069;-72
2023/01/24 09:32:34;;;;;;;17.08;10.63;;;;;;;0.97;100.00;102800.28;4948600;28;20042;-72
2023/01/24 09:35:00;;;;;;;17.75;8.75;;;;;;;1.14;100.00;102826.03;4949613;29;20046;-69
2023/01/24 09:37:26;;;;;;;15.88;8.82;;;;;;;1.12;100.00;102765.56;4965187;28;20023;-70
2023/01/24 09:39:55;;;;;;;;;;;;;;;1.23;100.00;102766.06;4950862;28;20174;-70
2023/01/24 09:42:46;;;;;;;15.52;8.82;;;;;;;1.27;100.00;102744.00;4967343;28;19918;-73
2023/01/24 09:45:20;;;;;;;15.88;9.02;;;;;;;1.40;100.00;102783.03;4950348;28;20035;-72
2023/01/24 09:47:45;;;;;;;20.92;8.95;;;;;;;1.54;100.00;102809.75;4932858;29;20500;-70
2023/01/24 09:50:26;;;;;;;15.43;8.53;;;;;;;1.12;100.00;102655.06;4949237;28;20034;-70
2023/01/24 09:52:54;;;;;;;17.70;10.48;;;;;;;0.88;100.00;102606.84;4950052;28;20038;-71
2023/01/24 09:55:41;;;;;;;21.17;10.52;;;;;;;1.03;100.00;102684.31;4954005;28;20114;-70
2023/01/24 09:58:28;;;;;;;15.10;8.93;;;;;;;0.98;100.00;102665.22;4952424;28;20485;-70
2023/01/24 10:00:54;;;;;;;15.63;8.65;;;;;;;0.92;100.00;102666.31;4949987;29;20031;-73
2023/01/24 10:03:23;;;;;;;16.15;8.45;;;;;;;1.11;100.00;102697.25;4948939;28;20539;-72
2023/01/24 10:05:51;;;;;;;18.42;8.70;;;;;;;1.09;100.00;102651.72;4948801;28;20098;-70
2023/01/24 10:08:30;;;;;;;18.15;10.27;;;;;;;1.18;100.00;102672.44;4950561;28;20033;-70
2023/01/24 10:11:01;;;;;;;18.85;9.18;;;;;;;1.36;100.00;102665.63;4949959;28;20037;-71
2023/01/24 10:13:36;;;;;;;15.57;8.30;;;;;;;1.48;100.00;102618.66;4952131;28;20039;-70
2023/01/24 10:16:22;;;;;;;15.45;7.97;;;;;;;1.57;100.00;102542.88;4949874;28;20035;-70
2023/01/24 10:18:50;;;;;;;15.27;8.30;;;;;;;1.59;100.00;102488.38;4953711;28;20038;-70
2023/01/24 10:21:39;;;;;;;15.30;8.82;;;;;;;1.73;100.00;102512.38;4949748;28;20101;-70
2023/01/24 10:24:11;;;;;;;14.88;8.52;;;;;;;1.70;100.00;102480.91;4957870;28;20086;-72
2023/01/24 10:26:47;;;;;;;15.43;8.48;;;;;;;1.63;100.00;102453.13;4951466;28;20041;-71
2023/01/24 10:29:25;;;;;;;15.07;8.77;;;;;;;1.34;100.00;102373.56;4948617;29;20039;-78
2023/01/24 10:32:15;;;;;;;19.25;10.35;;;;;;;1.01;100.00;102360.03;4948963;28;20035;-73
2023/01/24 10:34:44;;;;;;;21.73;11.30;;;;;;;1.18;100.00;102488.25;4945983;29;20048;-71
2023/01/24 10:37:09;;;;;;;17.17;9.10;;;;;;;1.27;100.00;102535.25;4949025;28;20023;-72
2023/01/24 10:39:36;;;;;;;18.90;9.77;;;;;;;1.24;100.00;102535.34;4951378;28;20037;-72
2023/01/24 10:42:03;;;;;;;15.30;8.95;;;;;;;1.39;100.00;102576.03;4953123;28;20042;-72
2023/01/24 10:44:36;;;;;;;15.63;8.27;;;;;;;1.57;100.00;102628.00;4953871;28;20025;-71
2023/01/24 10:47:36;;;;;;;16.52;8.55;;;;;;;1.68;100.00;102654.75;4954194;28;20027;-71
2023/01/24 10:50:12;;;;;;;21.42;10.52;;;;;;;1.40;100.00;102504.91;4944295;28;20042;-72
2023/01/24 10:52:37;;;;;;;18.75;9.65;;;;;;;1.46;100.00;102493.28;4952988;28;20031;-71
2023/01/24 10:55:22;;;;;;;20.60;8.70;;;;;;;1.44;100.00;102458.28;4945823;28;20078;-72
2023/01/24 10:57:54;;;;;;;11.80;6.35;;;;;;;1.64;100.00;102508.34;4951479;28;20611;-71
2023/01/24 11:00:34;;;;;;;19.08;8.85;;;;;;;1.72;100.00;102491.38;4943583;28;20641;-71
2023/01/24 11:03:03;;;;;;;16.67;9.40;;;;;;;1.69;100.00;102424.75;4951247;28;20604;-71
2023/01/24 11:05:47;;;;;;;17.08;7.95;;;;;;;1.64;100.00;102371.44;4952770;28;20027;-72
2023/01/24 11:08:19;;;;;;;18.33;8.93;;;;;;;1.77;100.00;102413.06;4953578;28;20039;-71
2023/01/24 11:10:45;;;;;;;16.92;8.52;;;;;;;1.77;100.00;102397.25;4950526;28;20048;-72
2023/01/24 11:13:32;;;;;;;15.88;8.20;;;;;;;1.62;100.00;102343.47;4946087;28;20019;-72
2023/01/24 11:16:17;;;;;;;16.52;8.70;;;;;;;1.54;100.00;102292.91;4948448;28;20126;-71
2023/01/24 11:18:57;;;;;;;14.05;7.60;;;;;;;1.74;100.00;102365.78;4952288;28;20042;-71
2023/01/24 11:21:22;;;;;;;14.32;7.38;;;;;;;1.91;100.00;102384.34;4952590;28;20067;-71
2023/01/24 11:24:06;;;;;;;16.05;8.65;;;;;;;1.79;100.00;102358.53;4953323;28;20125;-71
2023/01/24 11:26:36;;;;;;;14.65;7.32;;;;;;;1.79;100.00;102301.44;4952466;28;20481;-70
2023/01/24 11:29:15;;;;;;;13.73;8.15;;;;;;;1.77;100.00;102297.19;4952443;28;20058;-70
2023/01/24 11:31:50;;;;;;;12.05;7.15;;;;;;;1.81;100.00;102338.25;4958488;28;20039;-71
2023/01/24 11:34:42;;;;;;;13.07;7.53;;;;;;;1.77;100.00;102339.31;4954239;28;20045;-71
2023/01/24 11:37:32;;;;;;;13.63;7.75;;;;;;;1.87;100.00;102377.47;4944926;28;20793;-70
2023/01/24 11:40:28;;;;;;;14.35;8.57;;;;;;;1.92;100.00;102278.06;4947867;28;20285;-70
2023/01/24 11:43:12;;;;;;;18.92;9.23;;;;;;;1.66;100.00;102185.31;4951714;28;20082;-71
2023/01/24 11:45:58;;;;;;;16.50;8.13;;;;;;;1.66;100.00;102239.72;4953469;28;20484;-71
2023/01/24 11:48:35;;;;;;;17.83;8.93;;;;;;;1.56;100.00;102260.31;4952961;28;20022;-70
2023/01/24 11:51:14;;;;;;;20.33;10.73;;;;;;;1.53;100.00;102288.59;4950520;28;20046;-71
2023/01/24 11:54:14;;;;;;;19.40;10.73;;;;;;;1.31;100.00;102294.78;4953213;28;20058;-71
2023/01/24 11:56:47;;;;;;;23.25;11.07;;;;;;;1.48;100.00;102423.03;4957054;28;20093;-71
2023/01/24 11:59:24;;;;;;;23.60;10.13;;;;;;;1.59;100.00;102456.78;4952984;28;20947;-70
2023/01/24 12:02:20;;;;;;;19.73;9.82;;;;;;;1.24;100.00;102315.22;4950245;28;20046;-70
2023/01/24 12:05:04;;;;;;;19.13;9.77;;;;;;;1.24;100.00;102356.44;4944078;28;20050;-71
2023/01/24 12:07:35;;;;;;;17.52;9.95;;;;;;;1.00;100.00;102339.88;4946629;28;20031;-71